Time;durP1;ratioP1;P1;durP2;ratioP2;P2;SDS_P1;SDS_P2;PMS_P1;PMS_P2;Temp;Humidity;BMP_temperature;BMP_pressure;BME280_temperature;BME280_humidity;BME280_pressure;Samples;Min_cycle;Max_cycle;Signal;HPM_P1;HPM_P2
2023/07/12 00:00:44;;;;;;;9.75;6.50;;;19.60;99.90;;;;;;5046280;28;20194;-85
2023/07/12 00:03:11;;;;;;;6.60;3.38;;;19.60;99.90;;;;;;5052179;28;20198;-89
2023/07/12 00:05:38;;;;;;;10.15;5.90;;;19.70;99.90;;;;;;5055992;28;20198;-88
2023/07/12 00:08:06;;;;;;;8.65;5.30;;;19.70;99.90;;;;;;5045630;28;20198;-88
2023/07/12 00:10:35;;;;;;;6.65;3.83;;;19.70;99.90;;;;;;5050225;28;20246;-87
2023/07/12 00:13:04;;;;;;;7.97;5.50;;;19.70;99.90;;;;;;5032122;28;20214;-88
2023/07/12 00:15:34;;;;;;;10.13;4.07;;;19.70;99.90;;;;;;5049161;28;20202;-88
2023/07/12 00:18:01;;;;;;;11.45;4.63;;;19.90;99.90;;;;;;5055584;28;20222;-90
2023/07/12 00:20:30;;;;;;;8.35;3.47;;;19.90;99.90;;;;;;5046833;28;20206;-89
2023/07/12 00:22:57;;;;;;;7.30;3.50;;;19.90;99.90;;;;;;5045639;28;20203;-91
2023/07/12 00:25:27;;;;;;;7.68;4.10;;;19.90;99.90;;;;;;5048710;28;20581;-89
2023/07/12 00:27:54;;;;;;;8.73;4.60;;;19.90;99.90;;;;;;5030005;28;20205;-91
2023/07/12 00:30:24;;;;;;;7.82;3.92;;;20.00;99.90;;;;;;5049501;28;20213;-87
2023/07/12 00:32:55;;;;;;;9.68;3.70;;;20.00;99.90;;;;;;5049357;28;20202;-89
2023/07/12 00:35:24;;;;;;;9.50;3.47;;;20.00;99.90;;;;;;5049204;28;20198;-86
2023/07/12 00:37:53;;;;;;;8.75;3.60;;;19.90;99.90;;;;;;5049729;28;20201;-88
2023/07/12 00:40:39;;;;;;;5.43;3.40;;;19.90;99.90;;;;;;5051015;28;20304;-89
2023/07/12 00:43:15;;;;;;;6.88;3.35;;;19.80;99.90;;;;;;5041932;28;20198;-88
2023/07/12 00:45:47;;;;;;;6.22;3.92;;;19.80;99.90;;;;;;5036280;28;20208;-87
2023/07/12 00:48:15;;;;;;;6.80;3.40;;;19.90;99.90;;;;;;5056923;28;20193;-88
2023/07/12 00:50:42;;;;;;;6.55;3.40;;;19.80;99.90;;;;;;5025273;28;20583;-88
2023/07/12 00:53:14;;;;;;;7.70;3.50;;;19.80;99.90;;;;;;5052381;28;20194;-87
2023/07/12 00:56:01;;;;;;;6.25;3.45;;;19.80;99.90;;;;;;5050540;28;20202;-89
2023/07/12 00:58:33;;;;;;;7.00;3.63;;;19.70;99.90;;;;;;5023440;28;20678;-87
2023/07/12 01:01:03;;;;;;;7.22;3.58;;;19.80;99.90;;;;;;5051164;28;20205;-88
2023/07/12 01:03:33;;;;;;;5.72;3.65;;;19.90;99.90;;;;;;5052742;28;20201;-89
2023/07/12 01:06:01;;;;;;;4.45;3.58;;;19.90;99.90;;;;;;5046197;28;20194;-88
2023/07/12 01:08:29;;;;;;;7.00;3.60;;;19.80;99.90;;;;;;5049846;28;20198;-88
2023/07/12 01:10:58;;;;;;;9.40;3.75;;;19.90;99.90;;;;;;5046198;28;20288;-88
2023/07/12 01:13:25;;;;;;;6.22;3.92;;;19.90;99.90;;;;;;5049272;28;20554;-87
2023/07/12 01:15:53;;;;;;;8.23;3.20;;;19.90;99.90;;;;;;5056506;28;20190;-89
2023/07/12 01:18:21;;;;;;;5.28;3.15;;;20.00;99.90;;;;;;5051728;28;20552;-87
2023/07/12 01:20:53;;;;;;;6.13;3.50;;;19.90;99.90;;;;;;5048481;28;20210;-88
2023/07/12 01:23:21;;;;;;;9.57;3.80;;;19.90;99.90;;;;;;5034268;28;20204;-89
2023/07/12 01:25:48;;;;;;;7.70;3.63;;;19.80;99.90;;;;;;5048960;28;20190;-88
2023/07/12 01:28:15;;;;;;;5.97;3.63;;;19.80;99.90;;;;;;5052512;28;20198;-89
2023/07/12 01:30:42;;;;;;;7.10;3.38;;;19.80;99.90;;;;;;5050132;28;20225;-89
2023/07/12 01:33:09;;;;;;;8.40;3.70;;;19.70;99.90;;;;;;5032593;28;20198;-88
2023/07/12 01:35:36;;;;;;;7.40;3.80;;;19.70;99.90;;;;;;5033299;28;20204;-87
2023/07/12 01:38:04;;;;;;;6.00;3.08;;;19.70;99.90;;;;;;5049267;28;20224;-86
2023/07/12 01:40:31;;;;;;;7.57;3.67;;;19.60;99.90;;;;;;5052123;28;20213;-88
2023/07/12 01:42:58;;;;;;;7.15;3.45;;;19.60;99.90;;;;;;5047527;28;20218;-86
2023/07/12 01:45:25;;;;;;;5.35;3.30;;;19.60;99.90;;;;;;5016799;28;20201;-90
2023/07/12 01:47:52;;;;;;;6.90;3.40;;;19.70;99.90;;;;;;5034914;28;20678;-86
2023/07/12 01:50:19;;;;;;;6.00;3.97;;;19.70;99.90;;;;;;5029700;28;20218;-90
2023/07/12 01:52:46;;;;;;;7.80;3.53;;;19.70;99.90;;;;;;5032069;28;20201;-86
2023/07/12 01:55:14;;;;;;;7.80;3.40;;;19.80;99.90;;;;;;5048411;28;20205;-87
2023/07/12 01:57:41;;;;;;;7.90;3.58;;;19.90;99.90;;;;;;5046687;28;20202;-92
2023/07/12 02:00:09;;;;;;;5.93;3.30;;;20.00;99.90;;;;;;5042220;28;20200;-86
2023/07/12 02:02:36;;;;;;;8.45;3.72;;;20.00;99.90;;;;;;5028048;28;20669;-88
2023/07/12 02:05:03;;;;;;;7.47;4.07;;;19.90;99.90;;;;;;5028127;28;20279;-91
2023/07/12 02:07:30;;;;;;;8.73;3.95;;;19.70;99.90;;;;;;5050722;28;20535;-88
2023/07/12 02:10:12;;;;;;;5.00;3.40;;;19.70;99.90;;;;;;5048807;28;20198;-88
2023/07/12 02:12:42;;;;;;;8.98;3.63;;;19.60;99.90;;;;;;5013448;28;20217;-89
2023/07/12 02:15:10;;;;;;;6.18;3.15;;;19.60;99.90;;;;;;5044323;28;20190;-87
2023/07/12 02:17:37;;;;;;;6.57;3.70;;;19.60;99.90;;;;;;5048590;28;20224;-87
2023/07/12 02:20:04;;;;;;;6.93;3.65;;;19.50;99.90;;;;;;5053249;28;20571;-87
2023/07/12 02:22:33;;;;;;;6.15;3.47;;;19.60;99.90;;;;;;5048187;28;20247;-89
2023/07/12 02:25:00;;;;;;;5.95;3.42;;;19.50;99.90;;;;;;5052701;28;20201;-88
2023/07/12 02:27:27;;;;;;;5.07;3.38;;;19.50;99.90;;;;;;5039504;28;20193;-89
2023/07/12 02:29:56;;;;;;;6.18;3.60;;;19.50;99.90;;;;;;5046420;28;20201;-89
2023/07/12 02:32:23;;;;;;;6.22;3.63;;;19.40;99.90;;;;;;5031107;28;20229;-87
2023/07/12 02:34:50;;;;;;;7.78;3.70;;;19.40;99.90;;;;;;5047546;28;20658;-86
2023/07/12 02:37:17;;;;;;;6.10;3.33;;;19.40;99.90;;;;;;5045422;28;20194;-86
2023/07/12 02:39:45;;;;;;;5.35;3.70;;;19.40;99.90;;;;;;5048200;28;20197;-87
2023/07/12 02:42:12;;;;;;;6.50;3.70;;;19.40;99.90;;;;;;5028098;28;20960;-90
2023/07/12 02:44:39;;;;;;;6.47;3.88;;;19.50;99.90;;;;;;5050716;28;20279;-89
2023/07/12 02:47:09;;;;;;;7.50;3.55;;;19.50;99.90;;;;;;5050366;28;20194;-89
2023/07/12 02:49:37;;;;;;;9.82;3.80;;;19.50;99.90;;;;;;5048951;28;20232;-86
2023/07/12 02:52:04;;;;;;;11.65;4.57;;;19.50;99.90;;;;;;5025981;28;20682;-88
2023/07/12 02:54:31;;;;;;;8.82;4.07;;;19.40;99.90;;;;;;5048348;28;20201;-89
2023/07/12 02:56:58;;;;;;;6.35;3.80;;;19.50;99.90;;;;;;5049772;28;20212;-89
2023/07/12 02:59:25;;;;;;;5.90;3.72;;;19.40;99.90;;;;;;5048580;28;20198;-85
2023/07/12 03:01:53;;;;;;;7.68;4.13;;;19.40;99.90;;;;;;5046514;28;20205;-89
2023/07/12 03:04:22;;;;;;;8.90;4.15;;;19.30;99.90;;;;;;5024208;28;20643;-89
2023/07/12 03:06:51;;;;;;;7.65;3.92;;;19.30;99.90;;;;;;5046465;28;20194;-87
2023/07/12 03:09:18;;;;;;;7.75;3.60;;;19.30;99.90;;;;;;5050217;28;20198;-86
2023/07/12 03:11:46;;;;;;;6.38;4.45;;;19.30;99.90;;;;;;5039628;28;20574;-88
2023/07/12 03:14:15;;;;;;;7.63;3.85;;;19.20;99.90;;;;;;5014495;28;20201;-89
2023/07/12 03:16:43;;;;;;;8.43;4.38;;;19.20;99.90;;;;;;5032326;28;20929;-89
2023/07/12 03:19:10;;;;;;;7.20;3.97;;;19.10;99.90;;;;;;5047976;28;20305;-89
2023/07/12 03:21:38;;;;;;;5.97;4.40;;;19.10;99.90;;;;;;5041430;28;20663;-86
2023/07/12 03:24:06;;;;;;;6.28;4.38;;;19.10;99.90;;;;;;5043193;28;20203;-88
2023/07/12 03:26:33;;;;;;;6.10;3.85;;;19.10;99.90;;;;;;5043115;28;20209;-89
2023/07/12 03:29:00;;;;;;;7.13;4.15;;;19.00;99.90;;;;;;5041630;28;20225;-86
2023/07/12 03:31:29;;;;;;;6.78;4.05;;;19.10;99.90;;;;;;5047200;28;20225;-89
2023/07/12 03:33:56;;;;;;;7.00;4.32;;;19.10;99.90;;;;;;5046134;28;20202;-88
2023/07/12 03:36:25;;;;;;;6.53;4.55;;;19.10;99.90;;;;;;5045496;28;21488;-89
2023/07/12 03:38:53;;;;;;;8.73;4.47;;;19.10;99.90;;;;;;5046544;28;20262;-87
2023/07/12 03:41:21;;;;;;;9.35;4.35;;;19.00;99.90;;;;;;5055088;28;20205;-90
2023/07/12 03:43:49;;;;;;;7.53;4.65;;;19.00;99.90;;;;;;5054680;28;20197;-88
2023/07/12 03:46:17;;;;;;;8.55;4.40;;;19.00;99.90;;;;;;5034147;28;20202;-90
2023/07/12 03:48:45;;;;;;;7.40;4.63;;;19.00;99.90;;;;;;5036778;28;20210;-89
2023/07/12 03:51:14;;;;;;;11.52;5.78;;;19.00;99.90;;;;;;5035319;28;20236;-90
2023/07/12 03:53:41;;;;;;;10.98;4.47;;;19.00;99.90;;;;;;5049058;28;20206;-87
2023/07/12 03:56:10;;;;;;;8.02;4.80;;;19.00;99.90;;;;;;5052596;28;20194;-89
2023/07/12 03:58:39;;;;;;;9.30;4.78;;;19.00;99.90;;;;;;5054135;28;20224;-89
2023/07/12 04:01:09;;;;;;;6.88;4.78;;;19.00;99.90;;;;;;5049325;28;20584;-88
2023/07/12 04:03:37;;;;;;;10.43;4.57;;;19.00;99.90;;;;;;5015910;28;20206;-87
2023/07/12 04:06:05;;;;;;;8.00;4.43;;;19.00;99.90;;;;;;5056324;28;20198;-89
2023/07/12 04:08:32;;;;;;;7.85;4.68;;;19.00;99.90;;;;;;5029576;28;20233;-87
2023/07/12 04:11:00;;;;;;;8.55;4.80;;;19.10;99.90;;;;;;5051135;28;20218;-89
2023/07/12 04:13:28;;;;;;;9.45;5.07;;;19.10;99.90;;;;;;5046303;28;20555;-91
2023/07/12 04:15:56;;;;;;;9.52;5.07;;;19.00;99.90;;;;;;5051723;28;20662;-89
2023/07/12 04:18:24;;;;;;;6.72;5.00;;;19.00;99.90;;;;;;5051553;28;20217;-88
2023/07/12 04:20:51;;;;;;;8.27;4.93;;;19.00;99.90;;;;;;5053640;28;20213;-87
2023/07/12 04:23:18;;;;;;;8.20;4.68;;;19.00;99.90;;;;;;5052293;28;20198;-89
2023/07/12 04:25:45;;;;;;;10.10;5.15;;;19.00;99.90;;;;;;5033278;28;20646;-89
2023/07/12 04:28:12;;;;;;;8.25;4.97;;;19.00;99.90;;;;;;5035010;28;20248;-88
2023/07/12 04:30:40;;;;;;;10.82;4.80;;;19.10;99.90;;;;;;5049204;28;20193;-87
2023/07/12 04:33:07;;;;;;;8.80;5.00;;;19.20;99.90;;;;;;5051857;28;20206;-90
2023/07/12 04:35:38;;;;;;;10.48;4.95;;;19.30;99.90;;;;;;5030024;28;20210;-88
2023/07/12 04:38:05;;;;;;;8.95;5.18;;;19.40;99.90;;;;;;5050432;28;20816;-89
2023/07/12 04:40:32;;;;;;;9.90;4.85;;;19.40;99.90;;;;;;5052544;28;20200;-90
2023/07/12 04:42:59;;;;;;;7.30;4.68;;;19.40;99.90;;;;;;5027903;28;20205;-89
2023/07/12 04:45:26;;;;;;;8.43;4.72;;;19.40;99.90;;;;;;5046148;28;20194;-87
2023/07/12 04:47:55;;;;;;;11.20;4.93;;;19.30;99.90;;;;;;5028896;28;20206;-90
2023/07/12 04:50:22;;;;;;;12.70;4.82;;;19.30;99.90;;;;;;5030394;28;20198;-89
2023/07/12 04:52:48;;;;;;;8.45;4.78;;;19.30;99.90;;;;;;5053449;28;20671;-88
2023/07/12 04:55:24;;;;;;;7.38;4.93;;;19.30;99.90;;;;;;5049100;28;20216;-89
2023/07/12 04:57:51;;;;;;;5.85;4.68;;;19.40;99.90;;;;;;5044704;28;20194;-90
2023/07/12 05:00:19;;;;;;;5.18;4.32;;;19.40;99.90;;;;;;5049645;28;20198;-89
2023/07/12 05:02:47;;;;;;;7.63;4.60;;;19.40;99.90;;;;;;5032194;28;20214;-87
2023/07/12 05:05:16;;;;;;;7.32;4.90;;;19.50;99.90;;;;;;5048841;28;20820;-89
2023/07/12 05:07:43;;;;;;;8.07;4.25;;;19.50;99.90;;;;;;5045245;28;20288;-88
2023/07/12 05:10:11;;;;;;;6.95;4.40;;;19.50;99.90;;;;;;5045773;28;20874;-88
2023/07/12 05:12:39;;;;;;;13.57;4.70;;;19.60;99.90;;;;;;5048027;28;20598;-90
2023/07/12 05:15:08;;;;;;;8.73;4.35;;;19.60;99.90;;;;;;5039693;28;20205;-90
2023/07/12 05:17:35;;;;;;;9.00;4.68;;;19.70;99.90;;;;;;5048190;28;20229;-88
2023/07/12 05:20:04;;;;;;;9.60;4.75;;;19.70;99.90;;;;;;5032222;28;20198;-88
2023/07/12 05:22:32;;;;;;;7.53;4.47;;;19.70;99.90;;;;;;5050085;28;20236;-87
2023/07/12 05:25:00;;;;;;;8.00;4.43;;;19.90;99.90;;;;;;5041844;28;20197;-89
2023/07/12 05:27:27;;;;;;;9.18;4.13;;;20.00;99.90;;;;;;5050084;28;21280;-89
2023/07/12 05:29:54;;;;;;;9.18;4.43;;;20.10;99.90;;;;;;5050284;28;20550;-89
2023/07/12 05:32:21;;;;;;;8.73;4.55;;;20.30;99.90;;;;;;5046555;28;20213;-88
2023/07/12 05:34:48;;;;;;;8.80;4.45;;;20.50;99.90;;;;;;5026348;28;20213;-87
2023/07/12 05:37:16;;;;;;;7.82;3.70;;;20.60;99.90;;;;;;5034492;28;20612;-86
2023/07/12 05:39:44;;;;;;;7.32;4.20;;;20.80;99.90;;;;;;5048882;28;20301;-84
2023/07/12 05:42:11;;;;;;;5.55;4.30;;;21.00;99.90;;;;;;5030648;28;20748;-86
2023/07/12 05:44:39;;;;;;;7.28;4.30;;;21.10;99.90;;;;;;5008204;28;20206;-86
2023/07/12 05:47:06;;;;;;;7.43;3.85;;;21.10;99.90;;;;;;5050265;28;20616;-87
2023/07/12 05:49:34;;;;;;;7.68;4.07;;;21.00;99.60;;;;;;5032049;28;20682;-85
2023/07/12 05:52:01;;;;;;;6.20;3.90;;;20.90;99.90;;;;;;5050564;28;20213;-84
2023/07/12 05:54:29;;;;;;;5.53;3.70;;;20.80;99.90;;;;;;5043632;28;20199;-86
2023/07/12 05:56:58;;;;;;;7.47;4.00;;;20.90;99.90;;;;;;5033896;28;20201;-84
2023/07/12 05:59:25;;;;;;;10.35;3.55;;;20.80;99.90;;;;;;5048159;28;20716;-85
2023/07/12 06:01:52;;;;;;;6.22;3.58;;;20.90;99.90;;;;;;5049664;28;20206;-84
2023/07/12 06:04:19;;;;;;;5.22;3.60;;;20.80;99.90;;;;;;5033268;28;20194;-86
2023/07/12 06:06:46;;;;;;;7.45;4.00;;;20.70;99.90;;;;;;5050805;28;20229;-85
2023/07/12 06:09:13;;;;;;;8.50;3.78;;;20.70;99.90;;;;;;5047865;28;20674;-84
2023/07/12 06:11:41;;;;;;;6.00;3.40;;;20.60;99.90;;;;;;5029996;28;20217;-85
2023/07/12 06:14:09;;;;;;;7.85;3.83;;;20.60;99.90;;;;;;5030519;28;20193;-86
2023/07/12 06:16:36;;;;;;;8.50;3.50;;;20.70;99.90;;;;;;5014067;28;20256;-86
2023/07/12 06:19:04;;;;;;;7.97;3.47;;;20.70;99.90;;;;;;5026620;28;20628;-85
2023/07/12 06:21:32;;;;;;;7.55;3.58;;;20.60;99.90;;;;;;5049710;28;20286;-85
2023/07/12 06:23:59;;;;;;;8.45;3.70;;;20.60;99.90;;;;;;5029269;28;20206;-87
2023/07/12 06:26:27;;;;;;;7.68;3.42;;;20.60;99.90;;;;;;5042157;28;20198;-86
2023/07/12 06:28:54;;;;;;;6.00;3.28;;;20.50;99.90;;;;;;5029274;28;20257;-86
2023/07/12 06:31:23;;;;;;;5.28;3.28;;;20.50;99.80;;;;;;5047736;28;20194;-85
2023/07/12 06:33:50;;;;;;;5.15;3.38;;;20.50;99.30;;;;;;5049474;28;20253;-88
2023/07/12 06:36:17;;;;;;;3.78;2.60;;;20.40;99.20;;;;;;5049189;28;20194;-88
2023/07/12 06:38:46;;;;;;;6.80;2.75;;;20.40;98.30;;;;;;5046069;28;20199;-87
2023/07/12 06:41:13;;;;;;;7.22;2.88;;;20.40;98.20;;;;;;5045453;28;20651;-87
2023/07/12 06:43:40;;;;;;;6.18;2.85;;;20.40;97.20;;;;;;5048878;28;20195;-89
2023/07/12 06:46:07;;;;;;;4.40;2.63;;;20.50;97.00;;;;;;5015165;28;20201;-88
2023/07/12 06:48:36;;;;;;;4.75;2.80;;;20.50;96.90;;;;;;5048893;28;20217;-89
2023/07/12 06:51:02;;;;;;;7.43;3.03;;;20.40;97.20;;;;;;5046929;28;20209;-87
2023/07/12 06:53:29;;;;;;;5.40;2.83;;;20.40;97.90;;;;;;5027902;28;20218;-88
2023/07/12 06:55:56;;;;;;;7.43;3.20;;;20.30;98.10;;;;;;5049975;28;20198;-88
2023/07/12 06:58:24;;;;;;;8.98;2.95;;;20.30;98.10;;;;;;5039644;28;20206;-87
2023/07/12 07:00:51;;;;;;;4.88;2.70;;;20.20;98.10;;;;;;5046611;28;20213;-89
2023/07/12 07:03:18;;;;;;;3.90;2.35;;;20.20;97.10;;;;;;5049190;28;20205;-87
2023/07/12 07:05:48;;;;;;;5.50;2.40;;;20.00;97.80;;;;;;5051572;28;20201;-87
2023/07/12 07:08:17;;;;;;;5.95;2.30;;;19.90;97.40;;;;;;5047239;28;20209;-87
2023/07/12 07:10:44;;;;;;;4.20;2.50;;;19.80;98.00;;;;;;5049352;28;20228;-86
2023/07/12 07:13:11;;;;;;;5.45;2.60;;;19.70;98.00;;;;;;5053114;28;20217;-89
2023/07/12 07:15:38;;;;;;;2.67;2.30;;;19.60;98.50;;;;;;5032190;28;20213;-89
2023/07/12 07:18:05;;;;;;;7.50;2.42;;;19.50;98.60;;;;;;5049192;28;20221;-87
2023/07/12 07:20:32;;;;;;;3.47;2.30;;;19.50;98.40;;;;;;5055485;28;20198;-85
2023/07/12 07:23:00;;;;;;;3.95;2.05;;;19.50;98.70;;;;;;5051815;28;20260;-89
2023/07/12 07:25:28;;;;;;;7.22;2.15;;;19.50;98.50;;;;;;5035732;28;20587;-87
2023/07/12 07:27:56;;;;;;;3.67;2.00;;;19.50;98.60;;;;;;5019642;28;20565;-89
2023/07/12 07:30:23;;;;;;;3.70;2.20;;;19.60;98.30;;;;;;5052385;28;20198;-89
2023/07/12 07:32:52;;;;;;;4.90;2.35;;;19.60;98.30;;;;;;5050686;28;20225;-88
2023/07/12 07:35:19;;;;;;;3.40;1.73;;;19.70;98.00;;;;;;5033675;28;20198;-86
2023/07/12 07:37:47;;;;;;;4.22;2.00;;;19.80;98.00;;;;;;5050427;28;20206;-88
2023/07/12 07:40:17;;;;;;;2.72;1.95;;;19.80;98.00;;;;;;5049072;28;20200;-88
2023/07/12 07:42:44;;;;;;;4.28;2.00;;;19.90;98.10;;;;;;5043670;28;20217;-88
2023/07/12 07:45:12;;;;;;;3.88;2.00;;;20.00;97.50;;;;;;5042817;28;20210;-85
2023/07/12 07:47:39;;;;;;;3.75;1.80;;;20.10;97.30;;;;;;5030111;28;20205;-87
2023/07/12 07:50:07;;;;;;;5.78;1.88;;;20.20;97.10;;;;;;5053475;28;20198;-87
2023/07/12 07:52:34;;;;;;;2.40;1.80;;;20.20;96.80;;;;;;5047437;28;20236;-85
2023/07/12 07:55:01;;;;;;;3.40;1.80;;;20.20;97.10;;;;;;5047167;28;20194;-88
2023/07/12 07:57:30;;;;;;;3.28;2.22;;;20.20;97.10;;;;;;5045716;28;20733;-89
2023/07/12 07:59:59;;;;;;;5.63;1.90;;;20.30;96.70;;;;;;5048704;28;20573;-88
2023/07/12 08:02:26;;;;;;;5.13;2.10;;;20.40;96.00;;;;;;5043741;28;20198;-88
2023/07/12 08:04:53;;;;;;;4.05;1.95;;;20.50;96.70;;;;;;5028908;28;20202;-87
2023/07/12 08:07:20;;;;;;;4.65;2.00;;;20.50;96.40;;;;;;5024883;28;20199;-89
2023/07/12 08:09:47;;;;;;;3.80;1.90;;;20.80;96.00;;;;;;5052513;28;20194;-87
2023/07/12 08:12:14;;;;;;;4.28;1.88;;;20.90;96.00;;;;;;5051679;28;20229;-88
2023/07/12 08:14:43;;;;;;;2.90;1.90;;;21.20;95.40;;;;;;5031630;28;20228;-88
2023/07/12 08:17:10;;;;;;;4.90;1.80;;;21.40;93.80;;;;;;5019271;28;20619;-86
2023/07/12 08:19:37;;;;;;;4.28;1.85;;;21.50;93.80;;;;;;5050548;28;20193;-89
2023/07/12 08:22:04;;;;;;;3.40;1.77;;;21.70;93.00;;;;;;5044789;28;20545;-88
2023/07/12 08:24:32;;;;;;;3.13;2.00;;;21.70;91.60;;;;;;5051996;28;20213;-88
2023/07/12 08:26:59;;;;;;;4.40;2.00;;;21.70;92.20;;;;;;5049364;28;20224;-88
2023/07/12 08:29:26;;;;;;;2.67;2.15;;;21.90;92.70;;;;;;5051030;28;20190;-88
2023/07/12 08:31:54;;;;;;;2.47;1.95;;;21.90;91.40;;;;;;5033519;28;20202;-87
2023/07/12 08:34:21;;;;;;;3.03;1.88;;;22.10;91.00;;;;;;5050227;28;20194;-86
2023/07/12 08:36:48;;;;;;;2.47;1.80;;;22.10;92.00;;;;;;5054343;28;20303;-88
2023/07/12 08:39:15;;;;;;;4.32;1.80;;;22.30;90.10;;;;;;5030250;28;20198;-88
2023/07/12 08:41:42;;;;;;;3.95;1.90;;;22.50;88.20;;;;;;5027664;28;20206;-88
2023/07/12 08:44:14;;;;;;;2.70;1.70;;;22.70;88.90;;;;;;5042338;28;20198;-88
2023/07/12 08:46:46;;;;;;;3.28;2.00;;;22.80;90.80;;;;;;5047546;28;20197;-86
2023/07/12 08:49:17;;;;;;;4.72;1.98;;;23.00;87.20;;;;;;5051511;28;20190;-86
2023/07/12 08:51:45;;;;;;;1.88;1.77;;;23.20;86.70;;;;;;5052166;28;20220;-86
2023/07/12 08:54:22;;;;;;;3.72;1.90;;;23.50;86.00;;;;;;5034800;28;20693;-86
2023/07/12 08:56:49;;;;;;;3.05;1.80;;;24.00;80.80;;;;;;5043491;28;20193;-83
2023/07/12 08:59:17;;;;;;;2.47;1.77;;;24.40;74.70;;;;;;5049983;28;20205;-85
2023/07/12 09:01:47;;;;;;;2.70;1.80;;;24.90;60.60;;;;;;5052724;28;20213;-86
2023/07/12 09:04:34;;;;;;;3.35;1.90;;;25.30;56.10;;;;;;5052251;28;20205;-84
2023/07/12 09:07:03;;;;;;;3.58;1.80;;;25.40;57.60;;;;;;5033517;28;20205;-87
2023/07/12 09:09:35;;;;;;;6.68;2.33;;;25.50;60.90;;;;;;5050483;28;20193;-86
2023/07/12 09:12:05;;;;;;;3.80;1.70;;;25.60;49.30;;;;;;5032157;28;20654;-86
2023/07/12 09:14:36;;;;;;;4.43;2.17;;;25.60;50.80;;;;;;5032572;28;20284;-87
2023/07/12 09:17:07;;;;;;;3.40;1.85;;;25.50;52.20;;;;;;5050203;28;20208;-85
2023/07/12 09:19:38;;;;;;;2.40;1.85;;;25.50;53.20;;;;;;5032685;28;20229;-86
2023/07/12 09:22:14;;;;;;;2.75;1.85;;;25.90;47.10;;;;;;5050057;28;20208;-86
2023/07/12 09:24:44;;;;;;;2.15;1.75;;;25.90;44.10;;;;;;5014083;28;20674;-84
2023/07/12 09:27:16;;;;;;;2.30;1.90;;;26.30;45.90;;;;;;5044444;28;20193;-87
2023/07/12 09:29:43;;;;;;;3.33;1.90;;;26.70;41.10;;;;;;5049170;28;20198;-85
2023/07/12 09:32:18;;;;;;;2.80;2.25;;;27.40;36.50;;;;;;5039149;28;20204;-85
2023/07/12 09:34:47;;;;;;;6.03;2.40;;;27.70;33.00;;;;;;5046480;28;20201;-86
2023/07/12 09:37:16;;;;;;;2.83;2.30;;;27.60;31.20;;;;;;5027177;28;20197;-87
2023/07/12 09:39:59;;;;;;;6.03;2.33;;;27.40;29.20;;;;;;5045630;28;20292;-86
2023/07/12 09:42:27;;;;;;;2.83;2.20;;;27.40;30.20;;;;;;5027643;28;20650;-86
2023/07/12 09:44:54;;;;;;;2.65;2.08;;;27.30;31.40;;;;;;5045539;28;20256;-87
2023/07/12 09:47:37;;;;;;;3.38;2.38;;;27.80;29.10;;;;;;5045646;28;20204;-85
2023/07/12 09:50:14;;;;;;;2.58;2.25;;;28.00;30.60;;;;;;5030813;28;20584;-87
2023/07/12 09:52:59;;;;;;;5.68;2.15;;;28.40;25.20;;;;;;5050010;28;20208;-85
2023/07/12 09:55:31;;;;;;;4.25;2.38;;;28.70;24.80;;;;;;5032871;28;20189;-87
2023/07/12 09:58:09;;;;;;;2.65;2.15;;;29.20;21.90;;;;;;5012182;28;20202;-85
2023/07/12 10:00:41;;;;;;;3.45;2.50;;;29.40;24.40;;;;;;5047911;28;20202;-87
2023/07/12 10:03:18;;;;;;;3.35;2.42;;;29.80;21.00;;;;;;5048477;28;20204;-87
2023/07/12 10:05:52;;;;;;;5.65;2.60;;;30.00;20.20;;;;;;5046244;28;20262;-88
2023/07/12 10:08:20;;;;;;;3.63;2.20;;;29.80;21.70;;;;;;5050629;28;20220;-87
2023/07/12 10:11:01;;;;;;;4.15;2.50;;;29.80;19.80;;;;;;5048846;28;20205;-88
2023/07/12 10:13:37;;;;;;;3.25;2.33;;;29.90;20.60;;;;;;5056009;28;20205;-87
2023/07/12 10:16:06;;;;;;;5.05;2.78;;;30.20;16.70;;;;;;5047759;28;20189;-85
2023/07/12 10:18:37;;;;;;;2.90;2.30;;;29.90;20.00;;;;;;5051337;28;20221;-86
2023/07/12 10:21:07;;;;;;;4.57;2.50;;;29.90;18.40;;;;;;5038797;28;20193;-85
2023/07/12 10:23:42;;;;;;;4.40;2.60;;;29.70;17.90;;;;;;5046297;28;20212;-87
2023/07/12 10:26:14;;;;;;;8.48;2.65;;;29.90;19.10;;;;;;5040585;28;21047;-87
2023/07/12 10:28:45;;;;;;;3.65;2.40;;;29.70;19.70;;;;;;5040632;28;20194;-88
2023/07/12 10:31:25;;;;;;;9.50;2.72;;;29.70;18.70;;;;;;5046650;28;20216;-87
2023/07/12 10:34:00;;;;;;;4.82;2.67;;;29.80;19.20;;;;;;5048212;28;20217;-85
2023/07/12 10:36:31;;;;;;;4.22;3.05;;;30.20;17.10;;;;;;5048623;28;20197;-87
2023/07/12 10:38:58;;;;;;;15.27;13.73;;;30.50;19.00;;;;;;5029380;28;20197;-88
2023/07/12 10:41:33;;;;;;;5.13;4.10;;;30.30;16.90;;;;;;5049269;28;20220;-86
2023/07/12 10:44:07;;;;;;;4.90;3.05;;;30.50;19.20;;;;;;5047462;28;20208;-85
2023/07/12 10:46:37;;;;;;;4.80;2.47;;;30.40;18.70;;;;;;5031110;28;20201;-86
2023/07/12 10:49:10;;;;;;;5.38;3.25;;;30.40;18.80;;;;;;5017307;28;20259;-87
2023/07/12 10:51:40;;;;;;;4.80;2.75;;;30.10;18.30;;;;;;5053333;28;20193;-86
2023/07/12 10:55:04;;;;;;;4.10;2.70;;;29.90;19.00;;;;;;5052488;28;20209;-87
2023/07/12 10:57:39;;;;;;;6.05;3.35;;;29.70;17.90;;;;;;5051220;28;20198;-87
2023/07/12 11:00:25;;;;;;;4.32;3.05;;;29.80;19.50;;;;;;5046273;28;20263;-87
2023/07/12 11:03:04;;;;;;;3.97;3.28;;;30.20;18.10;;;;;;5042084;28;20208;-87
2023/07/12 11:05:44;;;;;;;5.57;3.00;;;30.50;17.70;;;;;;5051691;28;20197;-87
2023/07/12 11:08:37;;;;;;;5.97;3.25;;;30.80;17.00;;;;;;5050408;28;20547;-85
2023/07/12 11:11:42;;;;;;;6.05;3.15;;;30.60;19.00;;;;;;5053929;28;20202;-87
2023/07/12 11:14:44;;;;;;;6.22;3.70;;;30.50;18.40;;;;;;5052277;28;20942;-87
2023/07/12 11:17:15;;;;;;;3.95;3.20;;;30.50;16.90;;;;;;5012039;28;20250;-85
2023/07/12 11:19:50;;;;;;;4.70;3.08;;;30.40;16.80;;;;;;5031943;28;20201;-87
2023/07/12 11:22:19;;;;;;;7.00;3.30;;;30.10;16.70;;;;;;5052090;28;20212;-86
2023/07/12 11:24:56;;;;;;;3.00;2.40;;;29.90;17.40;;;;;;5045451;28;20252;-86
2023/07/12 11:27:42;;;;;;;4.20;2.80;;;29.70;20.50;;;;;;5047991;28;20204;-87
2023/07/12 11:30:37;;;;;;;24.83;22.52;;;29.90;17.80;;;;;;5034437;28;20200;-84
2023/07/12 11:33:15;;;;;;;5.32;2.83;;;29.70;20.20;;;;;;5047652;28;20205;-87
2023/07/12 11:35:47;;;;;;;6.50;3.55;;;29.60;20.80;;;;;;5052590;28;20242;-87
2023/07/12 11:38:17;;;;;;;5.90;4.75;;;29.70;20.20;;;;;;5050545;28;20201;-88
2023/07/12 11:40:46;;;;;;;6.65;4.32;;;29.80;18.10;;;;;;5048572;28;20211;-87
2023/07/12 11:43:36;;;;;;;19.25;17.42;;;29.90;18.80;;;;;;5051847;28;20311;-86
2023/07/12 11:46:13;;;;;;;8.43;4.60;;;29.70;19.10;;;;;;5029676;28;20251;-87
2023/07/12 11:48:43;;;;;;;6.95;2.83;;;29.50;18.40;;;;;;5053055;28;20193;-86
2023/07/12 11:51:19;;;;;;;4.55;3.15;;;29.20;19.20;;;;;;5048354;28;20197;-86
2023/07/12 11:53:52;;;;;;;6.07;4.00;;;29.20;20.00;;;;;;5049831;28;20212;-88
2023/07/12 11:56:19;;;;;;;9.38;7.15;;;29.70;19.10;;;;;;5048285;28;20198;-87
2023/07/12 11:58:47;;;;;;;7.57;5.40;;;30.00;19.70;;;;;;5050923;28;20194;-86
2023/07/12 12:01:17;;;;;;;8.23;4.78;;;30.30;17.70;;;;;;5050273;28;20193;-85
2023/07/12 12:03:48;;;;;;;8.35;5.15;;;30.30;16.80;;;;;;5058179;28;20227;-85
2023/07/12 12:06:15;;;;;;;6.35;3.40;;;30.10;18.80;;;;;;5052697;28;20194;-84
2023/07/12 12:08:48;;;;;;;7.97;3.75;;;30.10;19.10;;;;;;5050983;28;20193;-85
2023/07/12 12:11:15;;;;;;;5.10;3.80;;;30.20;17.60;;;;;;5057758;28;20208;-85
2023/07/12 12:13:52;;;;;;;6.00;5.00;;;30.20;17.90;;;;;;5051836;28;20271;-87
2023/07/12 12:16:23;;;;;;;5.18;3.25;;;30.00;18.50;;;;;;5049991;28;20204;-87
2023/07/12 12:18:53;;;;;;;7.05;3.58;;;30.00;17.90;;;;;;5049874;28;20615;-88
2023/07/12 12:21:21;;;;;;;8.80;5.82;;;30.10;17.60;;;;;;5052371;28;20208;-87
2023/07/12 12:23:57;;;;;;;7.70;3.60;;;29.90;18.40;;;;;;5034237;28;20208;-86
2023/07/12 12:26:29;;;;;;;8.73;5.38;;;29.80;19.80;;;;;;5053038;28;20216;-87
2023/07/12 12:29:00;;;;;;;7.07;4.00;;;29.60;20.80;;;;;;5049611;28;20251;-87
2023/07/12 12:31:29;;;;;;;6.97;4.10;;;29.50;19.80;;;;;;5032544;28;20259;-86
2023/07/12 12:34:05;;;;;;;6.97;5.20;;;29.40;18.30;;;;;;5049065;28;20228;-86
2023/07/12 12:36:34;;;;;;;10.38;4.57;;;29.50;19.90;;;;;;5050585;28;20611;-87
2023/07/12 12:39:05;;;;;;;9.15;4.30;;;29.70;18.60;;;;;;5047623;28;20642;-88
2023/07/12 12:41:35;;;;;;;10.20;5.55;;;29.50;19.40;;;;;;5045039;28;20256;-86
2023/07/12 12:44:10;;;;;;;6.57;4.50;;;29.80;19.50;;;;;;5053286;28;20194;-86
2023/07/12 12:46:38;;;;;;;8.65;4.70;;;30.20;19.20;;;;;;5033709;28;20209;-88
2023/07/12 12:49:18;;;;;;;6.25;4.38;;;30.00;18.20;;;;;;5048738;28;20201;-88
2023/07/12 12:51:45;;;;;;;8.00;4.38;;;30.10;19.40;;;;;;5050254;28;20197;-88
2023/07/12 12:54:14;;;;;;;8.45;4.70;;;30.10;17.90;;;;;;5044908;28;20227;-85
2023/07/12 12:56:41;;;;;;;6.57;4.43;;;30.00;18.00;;;;;;5023876;28;20249;-85
2023/07/12 12:59:12;;;;;;;6.13;4.72;;;29.80;18.20;;;;;;5043241;28;20193;-88